createdAt,value
2018-08-12T00:01:10.421Z,14.60
2018-08-12T00:03:41.345Z,14.40
2018-08-12T00:06:12.976Z,14.40
2018-08-12T00:08:45.236Z,14.40
2018-08-12T00:11:17.022Z,14.30
2018-08-12T00:13:48.414Z,14.20
2018-08-12T00:16:19.060Z,14.50
2018-08-12T00:18:49.379Z,14.30
2018-08-12T00:21:19.756Z,14.30
2018-08-12T00:23:50.398Z,13.90
2018-08-12T00:26:21.402Z,14.30
2018-08-12T00:28:51.751Z,14.40
2018-08-12T00:31:22.331Z,14.20
2018-08-12T00:33:53.426Z,14.30
2018-08-12T00:36:23.773Z,14.40
2018-08-12T00:38:54.113Z,14.30
2018-08-12T00:41:24.652Z,14.30
2018-08-12T00:43:54.983Z,14.30
2018-08-12T00:46:25.374Z,14.40
2018-08-12T00:48:55.693Z,14.20
2018-08-12T00:51:26.769Z,14.20
2018-08-12T00:53:57.336Z,14.10
2018-08-12T00:56:27.930Z,14.10
2018-08-12T00:58:59.357Z,14.20
2018-08-12T01:01:29.909Z,14.00
2018-08-12T01:04:00.258Z,13.80
2018-08-12T01:06:30.748Z,14.00
2018-08-12T01:09:01.290Z,14.00
2018-08-12T01:11:31.653Z,13.90
2018-08-12T01:14:01.993Z,13.90
2018-08-12T01:16:32.318Z,13.90
2018-08-12T01:19:02.881Z,14.00
2018-08-12T01:21:34.150Z,14.00
2018-08-12T01:24:04.499Z,13.70
2018-08-12T01:26:34.749Z,13.90
2018-08-12T01:29:05.218Z,13.90
2018-08-12T01:31:35.573Z,13.90
2018-08-12T01:34:05.967Z,13.80
2018-08-12T01:36:36.323Z,13.60
2018-08-12T01:39:09.802Z,13.70
2018-08-12T01:41:40.174Z,13.60
2018-08-12T01:44:10.513Z,13.70
2018-08-12T01:46:40.785Z,13.60
2018-08-12T01:49:11.159Z,13.70
2018-08-12T01:51:42.552Z,13.70
2018-08-12T01:54:12.893Z,13.70
2018-08-12T01:56:43.209Z,13.70
2018-08-12T01:59:13.553Z,13.50
2018-08-12T02:01:43.954Z,13.50
2018-08-12T02:04:14.290Z,13.40
2018-08-12T02:06:44.650Z,13.40
2018-08-12T02:09:15.060Z,13.50
2018-08-12T02:11:45.357Z,13.40
2018-08-12T02:14:15.648Z,13.50
2018-08-12T02:16:45.975Z,13.40
2018-08-12T02:19:16.328Z,13.50
2018-08-12T02:21:46.593Z,13.30
2018-08-12T02:24:16.904Z,13.30
2018-08-12T02:26:47.295Z,13.30
2018-08-12T02:29:17.792Z,13.40
2018-08-12T02:31:48.298Z,13.40
2018-08-12T02:34:18.689Z,13.30
2018-08-12T02:36:49.036Z,13.20
2018-08-12T02:39:19.403Z,13.20
2018-08-12T02:41:50.039Z,13.40
2018-08-12T02:44:20.361Z,13.40
2018-08-12T02:46:50.658Z,13.40
2018-08-12T02:49:20.973Z,13.20
2018-08-12T02:51:51.310Z,13.10
2018-08-12T02:54:21.646Z,13.30
2018-08-12T02:56:51.959Z,13.40
2018-08-12T02:59:22.376Z,13.20
2018-08-12T03:01:53.137Z,13.20
2018-08-12T03:04:23.502Z,13.20
2018-08-12T03:06:54.308Z,13.20
2018-08-12T03:09:24.678Z,13.10
2018-08-12T03:11:54.989Z,13.10
2018-08-12T03:14:25.462Z,13.10
2018-08-12T03:16:55.917Z,13.20
2018-08-12T03:19:26.306Z,13.20
2018-08-12T03:21:56.616Z,13.20
2018-08-12T03:24:26.966Z,13.20
2018-08-12T03:26:57.292Z,13.10
2018-08-12T03:29:27.754Z,13.00
2018-08-12T03:31:58.103Z,12.90
2018-08-12T03:34:28.765Z,12.90
2018-08-12T03:36:59.080Z,13.00
2018-08-12T03:39:29.488Z,13.20
2018-08-12T03:41:59.837Z,13.00
2018-08-12T03:44:30.193Z,13.00
2018-08-12T03:47:00.805Z,13.00
2018-08-12T03:49:31.159Z,12.70
2018-08-12T03:52:01.618Z,13.00
2018-08-12T03:54:31.978Z,13.10
2018-08-12T03:57:02.310Z,12.90
2018-08-12T03:59:32.694Z,12.90
2018-08-12T04:02:07.267Z,12.80
2018-08-12T04:04:37.678Z,12.80
2018-08-12T04:07:08.035Z,12.80
2018-08-12T04:09:38.525Z,12.70
2018-08-12T04:12:08.984Z,12.70
2018-08-12T04:14:39.609Z,12.70
2018-08-12T04:17:09.929Z,12.60
2018-08-12T04:19:40.245Z,12.80
2018-08-12T04:22:10.546Z,12.70
2018-08-12T04:24:40.884Z,12.70
2018-08-12T04:27:11.180Z,12.50
2018-08-12T04:29:41.619Z,12.70
2018-08-12T04:32:11.912Z,12.90
2018-08-12T04:34:42.371Z,12.90
2018-08-12T04:37:12.760Z,12.90
2018-08-12T04:39:43.531Z,12.90
2018-08-12T04:42:13.917Z,13.10
2018-08-12T04:44:44.298Z,12.90
2018-08-12T04:47:14.688Z,13.00
2018-08-12T04:49:45.098Z,13.10
2018-08-12T04:52:15.808Z,13.20
2018-08-12T04:54:46.142Z,13.00
2018-08-12T04:57:17.023Z,13.00
2018-08-12T04:59:48.157Z,13.30
2018-08-12T05:02:18.629Z,13.30
2018-08-12T05:04:49.429Z,13.30
2018-08-12T05:07:19.859Z,13.50
2018-08-12T05:09:50.429Z,13.60
2018-08-12T05:12:20.929Z,13.80
2018-08-12T05:14:51.335Z,13.10
2018-08-12T05:17:21.635Z,13.80
2018-08-12T05:19:51.993Z,13.60
2018-08-12T05:22:22.324Z,13.70
2018-08-12T05:24:53.001Z,13.60
2018-08-12T05:27:23.295Z,13.90
2018-08-12T05:29:54.134Z,13.90
2018-08-12T05:32:24.640Z,14.10
2018-08-12T05:34:55.059Z,14.00
2018-08-12T05:37:25.406Z,14.10
2018-08-12T05:39:55.921Z,14.20
2018-08-12T05:42:26.267Z,14.20
2018-08-12T05:44:56.665Z,14.40
2018-08-12T05:47:26.977Z,14.70
2018-08-12T05:49:57.641Z,14.60
2018-08-12T05:52:29.771Z,14.70
2018-08-12T05:55:00.558Z,14.70
2018-08-12T05:57:31.129Z,15.10
2018-08-12T06:00:02.780Z,15.10
2018-08-12T06:02:33.652Z,15.30
2018-08-12T06:05:05.001Z,15.60
2018-08-12T06:07:35.452Z,15.80
2018-08-12T06:10:08.266Z,16.10
2018-08-12T06:12:38.989Z,16.20
2018-08-12T06:15:10.483Z,16.40
2018-08-12T06:17:40.822Z,16.80
2018-08-12T06:20:12.160Z,16.80
2018-08-12T06:22:42.525Z,17.10
2018-08-12T06:25:13.213Z,17.40
2018-08-12T06:27:45.026Z,17.50
2018-08-12T06:33:40.474Z,18.10
2018-08-12T06:36:13.175Z,17.30
2018-08-12T06:39:00.428Z,18.30
2018-08-12T06:41:32.086Z,18.60
2018-08-12T06:44:02.698Z,19.00
2018-08-12T06:46:33.074Z,19.10
2018-08-12T06:49:03.481Z,19.40
2018-08-12T06:51:33.825Z,19.60
2018-08-12T06:54:04.275Z,19.70
2018-08-12T06:56:34.640Z,20.00
2018-08-12T06:59:05.121Z,20.20
2018-08-12T07:01:36.899Z,20.70
2018-08-12T07:04:09.572Z,21.00
2018-08-12T07:06:41.202Z,21.20
2018-08-12T07:09:13.395Z,21.40
2018-08-12T07:11:45.561Z,21.90
2018-08-12T07:14:17.551Z,22.10
2018-08-12T07:16:50.818Z,22.30
2018-08-12T07:19:24.274Z,22.60
2018-08-12T07:22:02.014Z,22.70
2018-08-12T07:24:35.415Z,22.80
2018-08-12T07:27:07.506Z,23.10
2018-08-12T07:29:39.410Z,23.50
2018-08-12T07:32:10.040Z,23.70
2018-08-12T07:34:41.850Z,23.90
2018-08-12T07:37:13.876Z,24.30
2018-08-12T07:39:46.697Z,24.50
2018-08-12T07:42:19.414Z,24.10
2018-08-12T07:44:51.398Z,24.50
2018-08-12T07:47:23.273Z,24.70
2018-08-12T07:49:55.531Z,24.90
2018-08-12T07:52:26.169Z,24.50
2018-08-12T07:54:57.863Z,24.90
2018-08-12T07:57:28.396Z,25.10
2018-08-12T07:59:58.729Z,25.10
2018-08-12T08:02:29.999Z,25.10
2018-08-12T08:05:00.543Z,25.60
2018-08-12T08:07:30.931Z,25.60
2018-08-12T08:10:02.641Z,25.60
2018-08-12T08:12:35.031Z,26.00
2018-08-12T08:15:09.560Z,25.60
2018-08-12T08:17:41.831Z,25.90
2018-08-12T08:20:15.373Z,25.80
2018-08-12T08:22:48.088Z,26.40
2018-08-12T08:25:21.945Z,26.50
2018-08-12T08:27:54.647Z,26.30
2018-08-12T08:30:26.536Z,26.50
2018-08-12T08:32:59.440Z,26.70
2018-08-12T08:35:31.333Z,26.60
2018-08-12T08:38:04.445Z,26.70
2018-08-12T08:40:35.137Z,26.80
2018-08-12T08:43:06.391Z,27.10
2018-08-12T08:45:37.523Z,27.00
2018-08-12T08:48:08.051Z,27.20
2018-08-12T08:50:38.629Z,27.40
2018-08-12T08:53:09.035Z,27.50
2018-08-12T08:55:39.480Z,27.60
2018-08-12T08:58:13.209Z,28.00
2018-08-12T09:00:45.117Z,27.80
2018-08-12T09:03:15.910Z,27.70
2018-08-12T09:05:47.303Z,27.90
2018-08-12T09:08:19.873Z,27.90
2018-08-12T09:10:50.271Z,28.20
2018-08-12T09:13:20.596Z,28.40
2018-08-12T09:15:51.190Z,28.60
2018-08-12T09:18:24.996Z,28.80
2018-08-12T09:20:55.366Z,28.80
2018-08-12T09:23:25.971Z,29.20
2018-08-12T09:25:56.464Z,29.50
2018-08-12T09:28:27.288Z,29.80
2018-08-12T09:30:57.665Z,29.50
2018-08-12T09:33:28.009Z,29.50
2018-08-12T09:35:58.478Z,29.40
2018-08-12T09:38:29.801Z,29.90
2018-08-12T09:41:01.653Z,30.00
2018-08-12T09:43:33.665Z,29.90
2018-08-12T09:46:07.491Z,29.80
2018-08-12T09:48:39.440Z,30.00
2018-08-12T09:51:11.367Z,30.50
2018-08-12T09:53:43.340Z,30.40
2018-08-12T09:56:15.688Z,30.10
2018-08-12T09:58:49.913Z,30.40
2018-08-12T10:01:21.555Z,30.60
2018-08-12T10:03:54.033Z,30.90
2018-08-12T10:06:27.316Z,31.00
2018-08-12T10:08:59.503Z,30.90
2018-08-12T10:11:30.190Z,30.60
2018-08-12T10:14:02.204Z,30.80
2018-08-12T10:16:34.303Z,30.80
2018-08-12T10:19:06.573Z,31.10
2018-08-12T10:21:40.917Z,31.10
2018-08-12T10:24:14.327Z,31.00
2018-08-12T10:26:46.888Z,31.60
2018-08-12T10:29:18.800Z,32.00
2018-08-12T10:31:50.701Z,32.00
2018-08-12T10:34:22.450Z,32.20
2018-08-12T10:36:54.572Z,32.30
2018-08-12T10:39:26.117Z,32.60
2018-08-12T10:41:58.315Z,32.30
2018-08-12T10:44:30.032Z,32.90
2018-08-12T10:47:01.612Z,33.10
2018-08-12T10:49:33.018Z,32.50
2018-08-12T10:52:03.690Z,32.70
2018-08-12T10:54:33.973Z,32.90
2018-08-12T10:57:04.378Z,32.70
2018-08-12T10:59:34.811Z,32.90
2018-08-12T11:02:05.230Z,33.20
2018-08-12T11:04:35.573Z,32.80
2018-08-12T11:07:06.130Z,32.70
2018-08-12T11:09:36.529Z,33.00
2018-08-12T11:12:07.286Z,33.10
2018-08-12T11:14:38.235Z,33.40
2018-08-12T11:17:08.624Z,33.20
2018-08-12T11:19:40.526Z,33.30
2018-08-12T11:22:11.187Z,33.50
2018-08-12T11:24:42.367Z,33.90
2018-08-12T11:27:12.741Z,33.90
2018-08-12T11:29:43.367Z,34.40
2018-08-12T11:32:13.847Z,34.20
2018-08-12T11:34:44.213Z,33.90
2018-08-12T11:37:14.758Z,34.40
2018-08-12T11:39:45.109Z,34.70
2018-08-12T11:42:15.514Z,35.00
2018-08-12T11:44:45.957Z,35.50
2018-08-12T11:47:16.985Z,36.00
2018-08-12T11:49:47.450Z,36.70
2018-08-12T11:52:18.406Z,36.30
2018-08-12T11:54:48.962Z,36.60
2018-08-12T11:57:19.367Z,36.70
2018-08-12T11:59:49.802Z,36.50
2018-08-12T12:02:20.203Z,36.90
2018-08-12T12:04:50.845Z,36.50
2018-08-12T12:07:21.850Z,36.70
2018-08-12T12:09:53.426Z,38.00
2018-08-12T12:12:23.859Z,37.90
2018-08-12T12:14:54.726Z,38.40
2018-08-12T12:17:25.370Z,38.80
2018-08-12T12:19:55.944Z,37.90
2018-08-12T12:22:26.318Z,38.40
2018-08-12T12:24:56.705Z,39.10
2018-08-12T12:27:27.079Z,39.40
2018-08-12T12:29:57.550Z,39.20
2018-08-12T12:32:27.930Z,40.30
2018-08-12T12:34:58.312Z,40.70
2018-08-12T12:37:28.712Z,40.20
2018-08-12T12:39:59.075Z,41.20
2018-08-12T12:42:29.521Z,40.90
2018-08-12T12:44:59.949Z,40.90
2018-08-12T12:47:30.379Z,41.40
2018-08-12T12:50:01.182Z,40.70
2018-08-12T12:52:31.573Z,41.40
2018-08-12T12:55:02.013Z,42.10
2018-08-12T12:57:32.361Z,42.00
2018-08-12T13:00:03.381Z,42.30
2018-08-12T13:02:33.832Z,42.80
2018-08-12T13:05:05.108Z,43.50
2018-08-12T13:07:35.606Z,44.00
2018-08-12T13:10:07.837Z,43.90
2018-08-12T13:12:39.527Z,43.40
2018-08-12T13:15:11.525Z,42.70
2018-08-12T13:17:42.022Z,42.60
2018-08-12T13:20:15.315Z,43.00
2018-08-12T13:22:47.273Z,41.90
2018-08-12T13:25:19.593Z,42.20
2018-08-12T13:27:50.421Z,43.20
2018-08-12T13:30:21.589Z,43.60
2018-08-12T13:32:51.981Z,44.30
2018-08-12T13:35:23.818Z,43.60
2018-08-12T13:37:54.113Z,44.00
2018-08-12T13:40:26.826Z,44.30
2018-08-12T13:42:58.308Z,44.40
2018-08-12T13:45:28.777Z,43.60
2018-08-12T13:47:59.156Z,44.20
2018-08-12T13:50:29.482Z,44.10
2018-08-12T13:53:00.407Z,44.40
2018-08-12T13:55:30.694Z,45.30
2018-08-12T13:58:01.088Z,45.10
2018-08-12T14:00:31.476Z,44.50
2018-08-12T14:03:02.009Z,44.70
2018-08-12T14:05:32.322Z,45.00
2018-08-12T14:08:03.223Z,44.60
2018-08-12T14:10:33.605Z,44.60
2018-08-12T14:13:04.027Z,44.40
2018-08-12T14:15:34.454Z,44.60
2018-08-12T14:18:05.554Z,44.60
2018-08-12T14:20:35.963Z,44.10
2018-08-12T14:23:06.393Z,43.70
2018-08-12T14:25:36.784Z,44.70
2018-08-12T14:28:07.175Z,44.70
2018-08-12T14:30:37.527Z,45.20
2018-08-12T14:33:08.008Z,45.60
2018-08-12T14:35:38.348Z,46.20
2018-08-12T14:38:08.822Z,46.00
2018-08-12T14:40:39.290Z,46.00
2018-08-12T14:43:09.689Z,46.30
2018-08-12T14:45:40.005Z,45.70
2018-08-12T14:48:10.488Z,44.90
2018-08-12T14:50:40.821Z,45.50
2018-08-12T14:53:11.229Z,45.50
2018-08-12T14:55:43.678Z,45.40
2018-08-12T14:58:16.078Z,45.00
2018-08-12T15:00:46.837Z,44.80
2018-08-12T15:03:17.328Z,44.70
2018-08-12T15:05:48.924Z,43.90
2018-08-12T15:08:19.913Z,42.90
2018-08-12T15:10:53.114Z,43.00
2018-08-12T15:13:25.074Z,42.30
2018-08-12T15:15:57.273Z,41.40
2018-08-12T15:18:30.818Z,40.70
2018-08-12T15:21:03.042Z,40.40
2018-08-12T15:23:34.913Z,40.30
2018-08-12T15:26:05.800Z,39.90
2018-08-12T15:28:37.308Z,39.10
2018-08-12T15:31:08.525Z,39.30
2018-08-12T15:33:38.949Z,39.20
2018-08-12T15:36:09.304Z,40.10
2018-08-12T15:38:39.661Z,40.60
2018-08-12T15:41:10.049Z,40.90
2018-08-12T15:43:40.413Z,41.20
2018-08-12T15:46:11.162Z,41.20
2018-08-12T15:48:41.586Z,41.00
2018-08-12T15:51:12.365Z,40.70
2018-08-12T15:53:42.714Z,40.40
2018-08-12T15:56:14.364Z,40.20
2018-08-12T15:58:46.138Z,39.90
2018-08-12T16:01:18.333Z,39.40
2018-08-12T16:03:50.313Z,39.00
2018-08-12T16:06:20.809Z,38.90
2018-08-12T16:08:51.941Z,39.20
2018-08-12T16:11:22.273Z,39.60
2018-08-12T16:13:54.526Z,39.90
2018-08-12T16:16:27.285Z,40.20
2018-08-12T16:18:59.151Z,40.30
2018-08-12T16:21:30.905Z,40.20
2018-08-12T16:24:02.209Z,41.20
2018-08-12T16:26:32.707Z,40.80
2018-08-12T16:29:04.720Z,41.40
2018-08-12T16:31:36.553Z,40.80
2018-08-12T16:34:08.396Z,41.30
2018-08-12T16:36:39.510Z,41.10
2018-08-12T16:39:12.328Z,41.70
2018-08-12T16:41:42.657Z,41.80
2018-08-12T16:44:12.980Z,41.70
2018-08-12T16:46:44.717Z,41.10
2018-08-12T16:49:16.615Z,41.70
2018-08-12T16:51:48.632Z,41.40
2018-08-12T16:54:20.389Z,40.80
2018-08-12T16:56:52.514Z,40.80
2018-08-12T16:59:22.972Z,40.80
2018-08-12T17:01:53.610Z,40.80
2018-08-12T17:04:24.144Z,40.20
2018-08-12T17:06:54.924Z,39.80
2018-08-12T17:09:25.447Z,39.30
2018-08-12T17:11:57.262Z,38.90
2018-08-12T17:14:29.966Z,38.50
2018-08-12T17:17:01.828Z,38.20
2018-08-12T17:19:33.761Z,37.90
2018-08-12T17:22:07.777Z,36.90
2018-08-12T17:24:40.100Z,35.40
2018-08-12T17:27:10.454Z,34.30
2018-08-12T17:29:41.407Z,33.70
2018-08-12T17:32:12.257Z,32.80
2018-08-12T17:34:43.488Z,32.00
2018-08-12T17:37:13.990Z,31.40
2018-08-12T17:39:44.326Z,31.00
2018-08-12T17:42:14.641Z,30.50
2018-08-12T17:44:45.289Z,30.00
2018-08-12T17:47:16.034Z,29.70
2018-08-12T17:49:46.486Z,29.00
2018-08-12T17:52:16.862Z,28.70
2018-08-12T17:54:48.121Z,28.50
2018-08-12T17:57:18.783Z,28.00
2018-08-12T17:59:49.107Z,27.80
2018-08-12T18:02:23.874Z,27.10
2018-08-12T18:04:54.591Z,27.30
2018-08-12T18:07:24.902Z,27.10
2018-08-12T18:09:55.307Z,26.70
2018-08-12T18:12:25.664Z,26.70
2018-08-12T18:14:56.163Z,26.50
2018-08-12T18:17:26.487Z,26.40
2018-08-12T18:19:57.142Z,26.20
2018-08-12T18:22:27.627Z,26.20
2018-08-12T18:24:57.968Z,26.00
2018-08-12T18:27:28.654Z,25.70
2018-08-12T18:29:59.023Z,25.70
2018-08-12T18:32:29.358Z,25.50
2018-08-12T18:34:59.830Z,25.60
2018-08-12T18:37:30.270Z,25.60
2018-08-12T18:40:01.723Z,25.10
2018-08-12T18:42:32.908Z,25.20
2018-08-12T18:45:04.735Z,25.10
2018-08-12T18:47:35.475Z,25.00
2018-08-12T18:50:08.085Z,24.80
2018-08-12T18:52:38.895Z,24.70
2018-08-12T18:55:11.463Z,24.60
2018-08-12T18:57:43.395Z,24.50
2018-08-12T19:00:15.054Z,24.20
2018-08-12T19:02:46.750Z,24.20
2018-08-12T19:05:19.042Z,24.00
2018-08-12T19:07:51.395Z,24.00
2018-08-12T19:10:23.341Z,23.90
2018-08-12T19:12:55.852Z,23.60
2018-08-12T19:15:28.773Z,23.50
2018-08-12T19:18:12.370Z,23.40
2018-08-12T19:21:08.171Z,23.40
2018-08-12T19:23:39.433Z,23.10
2018-08-12T19:26:11.438Z,23.10
2018-08-12T19:28:42.463Z,23.00
2018-08-12T19:31:13.277Z,23.00
2018-08-12T19:33:43.919Z,22.90
2018-08-12T19:36:14.552Z,22.90
2018-08-12T19:38:45.359Z,22.80
2018-08-12T19:41:17.200Z,22.50
2018-08-12T19:43:49.765Z,22.40
2018-08-12T19:46:20.921Z,22.50
2018-08-12T19:48:51.605Z,22.50
2018-08-12T19:51:22.412Z,22.30
2018-08-12T19:53:56.493Z,22.20
2018-08-12T19:56:27.223Z,22.10
2018-08-12T19:58:58.123Z,22.20
2018-08-12T20:01:28.867Z,22.10
2018-08-12T20:03:59.468Z,21.90
2018-08-12T20:06:30.397Z,21.80
2018-08-12T20:09:01.120Z,21.80
2018-08-12T20:11:31.613Z,21.50
2018-08-12T20:14:02.433Z,21.50
2018-08-12T20:16:33.870Z,21.40
2018-08-12T20:19:04.396Z,21.20
2018-08-12T20:21:34.840Z,21.10
2018-08-12T20:24:05.454Z,21.10
2018-08-12T20:26:35.782Z,20.90
2018-08-12T20:29:06.256Z,20.80
2018-08-12T20:31:36.576Z,20.90
2018-08-12T20:34:06.987Z,20.90
2018-08-12T20:36:37.310Z,20.70
2018-08-12T20:39:11.239Z,20.80
2018-08-12T20:41:42.262Z,20.90
2018-08-12T20:44:12.854Z,20.90
2018-08-12T20:46:43.374Z,20.70
2018-08-12T20:49:13.868Z,20.60
2018-08-12T20:51:44.207Z,20.50
2018-08-12T20:54:14.814Z,20.50
2018-08-12T20:56:45.198Z,20.50
2018-08-12T20:59:16.099Z,20.50
2018-08-12T21:01:46.397Z,20.40
2018-08-12T21:04:17.013Z,20.40
2018-08-12T21:06:47.967Z,20.40
2018-08-12T21:09:19.084Z,20.30
2018-08-12T21:11:49.945Z,20.10
2018-08-12T21:14:20.549Z,20.30
2018-08-12T21:16:52.507Z,20.10
2018-08-12T21:19:22.999Z,20.10
2018-08-12T21:21:54.056Z,20.00
2018-08-12T21:24:24.718Z,20.00
2018-08-12T21:26:55.599Z,20.10
2018-08-12T21:29:26.562Z,20.10
2018-08-12T21:31:57.165Z,20.20
2018-08-12T21:34:29.625Z,20.00
2018-08-12T21:37:00.442Z,20.00
2018-08-12T21:39:31.302Z,19.80
2018-08-12T21:42:02.690Z,20.00
2018-08-12T21:44:33.935Z,19.90
2018-08-12T21:47:04.747Z,19.80
2018-08-12T21:49:37.158Z,19.80
2018-08-12T21:52:08.840Z,19.80
2018-08-12T21:54:40.789Z,19.50
2018-08-12T21:57:12.365Z,19.40
2018-08-12T21:59:43.653Z,19.30
2018-08-12T22:02:16.278Z,19.30
2018-08-12T22:04:47.946Z,19.40
2018-08-12T22:07:18.922Z,19.10
2018-08-12T22:09:52.222Z,19.30
2018-08-12T22:12:22.934Z,19.10
2018-08-12T22:14:53.375Z,19.30
2018-08-12T22:17:26.053Z,19.00
2018-08-12T22:19:57.003Z,18.80
2018-08-12T22:22:28.315Z,18.90
2018-08-12T22:24:59.150Z,18.80
2018-08-12T22:27:29.558Z,18.60
2018-08-12T22:30:00.702Z,18.60
2018-08-12T22:32:31.536Z,18.80
2018-08-12T22:35:05.118Z,18.80
2018-08-12T22:37:36.960Z,18.70
2018-08-12T22:40:09.781Z,18.40
2018-08-12T22:42:41.562Z,18.50
2018-08-12T22:45:14.806Z,18.40
2018-08-12T22:47:45.884Z,18.70
2018-08-12T22:50:17.509Z,18.40
2018-08-12T22:52:49.406Z,18.30
2018-08-12T22:55:22.713Z,18.30
2018-08-12T22:57:54.881Z,18.30
2018-08-12T23:00:29.350Z,18.30
2018-08-12T23:03:02.115Z,18.30
2018-08-12T23:05:36.549Z,18.10
2018-08-12T23:08:13.358Z,18.00
2018-08-12T23:10:52.971Z,18.00
2018-08-12T23:13:27.626Z,18.00
2018-08-12T23:16:19.894Z,18.00
2018-08-12T23:18:53.228Z,18.10
2018-08-12T23:21:24.887Z,18.00
2018-08-12T23:23:58.224Z,18.00
2018-08-12T23:26:31.371Z,18.10
2018-08-12T23:29:04.983Z,18.20
2018-08-12T23:31:36.918Z,18.10
2018-08-12T23:34:10.971Z,18.00
2018-08-12T23:36:43.216Z,17.90
2018-08-12T23:39:15.354Z,17.90
2018-08-12T23:41:48.925Z,18.00
2018-08-12T23:44:20.499Z,18.00
2018-08-12T23:46:53.719Z,17.90
2018-08-12T23:49:26.568Z,17.90
2018-08-12T23:51:59.205Z,17.80
2018-08-12T23:54:32.647Z,17.70
2018-08-12T23:57:06.265Z,17.60
2018-08-12T23:59:39.087Z,17.50
